sensor_id;sensor_type;location;lat;lon;timestamp;temperature;humidity
25640;DHT22;13497;48.322;16.204;2023-03-14T00:01:19;10.30;96.30
25640;DHT22;13497;48.322;16.204;2023-03-14T00:03:47;10.30;96.40
25640;DHT22;13497;48.322;16.204;2023-03-14T00:06:13;10.20;96.40
25640;DHT22;13497;48.322;16.204;2023-03-14T00:08:40;10.20;96.50
25640;DHT22;13497;48.322;16.204;2023-03-14T00:11:09;10.20;96.50
25640;DHT22;13497;48.322;16.204;2023-03-14T00:13:35;10.20;96.70
25640;DHT22;13497;48.322;16.204;2023-03-14T00:16:05;10.20;96.80
25640;DHT22;13497;48.322;16.204;2023-03-14T00:18:32;10.10;96.90
25640;DHT22;13497;48.322;16.204;2023-03-14T00:20:59;10.10;97.00
25640;DHT22;13497;48.322;16.204;2023-03-14T00:23:25;10.10;97.10
25640;DHT22;13497;48.322;16.204;2023-03-14T00:25:50;10.00;97.20
25640;DHT22;13497;48.322;16.204;2023-03-14T00:28:16;10.00;97.30
25640;DHT22;13497;48.322;16.204;2023-03-14T00:30:41;10.00;97.40
25640;DHT22;13497;48.322;16.204;2023-03-14T00:33:07;9.90;97.40
25640;DHT22;13497;48.322;16.204;2023-03-14T00:35:32;10.00;97.50
25640;DHT22;13497;48.322;16.204;2023-03-14T00:37:58;9.90;97.50
25640;DHT22;13497;48.322;16.204;2023-03-14T00:40:24;9.90;97.60
25640;DHT22;13497;48.322;16.204;2023-03-14T00:42:49;9.90;97.70
25640;DHT22;13497;48.322;16.204;2023-03-14T00:45:15;9.90;97.70
25640;DHT22;13497;48.322;16.204;2023-03-14T00:47:40;9.90;97.80
25640;DHT22;13497;48.322;16.204;2023-03-14T00:50:11;9.80;97.90
25640;DHT22;13497;48.322;16.204;2023-03-14T00:52:37;9.80;98.00
25640;DHT22;13497;48.322;16.204;2023-03-14T00:55:03;9.80;98.00
25640;DHT22;13497;48.322;16.204;2023-03-14T00:57:29;9.90;98.00
25640;DHT22;13497;48.322;16.204;2023-03-14T00:59:54;9.80;98.10
25640;DHT22;13497;48.322;16.204;2023-03-14T01:02:20;9.80;98.20
25640;DHT22;13497;48.322;16.204;2023-03-14T01:04:48;9.80;98.20
25640;DHT22;13497;48.322;16.204;2023-03-14T01:07:14;9.80;98.30
25640;DHT22;13497;48.322;16.204;2023-03-14T01:09:39;9.70;98.30
25640;DHT22;13497;48.322;16.204;2023-03-14T01:12:05;9.80;98.40
25640;DHT22;13497;48.322;16.204;2023-03-14T01:14:31;9.70;98.40
25640;DHT22;13497;48.322;16.204;2023-03-14T01:16:56;9.80;98.40
25640;DHT22;13497;48.322;16.204;2023-03-14T01:19:27;9.80;98.30
25640;DHT22;13497;48.322;16.204;2023-03-14T01:21:53;9.80;98.30
25640;DHT22;13497;48.322;16.204;2023-03-14T01:24:18;9.80;98.30
25640;DHT22;13497;48.322;16.204;2023-03-14T01:26:44;9.80;98.40
25640;DHT22;13497;48.322;16.204;2023-03-14T01:29:10;9.80;98.40
25640;DHT22;13497;48.322;16.204;2023-03-14T01:31:35;9.80;98.40
25640;DHT22;13497;48.322;16.204;2023-03-14T01:34:01;9.80;98.30
25640;DHT22;13497;48.322;16.204;2023-03-14T01:36:27;9.90;98.30
25640;DHT22;13497;48.322;16.204;2023-03-14T01:38:52;9.90;98.20
25640;DHT22;13497;48.322;16.204;2023-03-14T01:41:21;9.90;98.20
25640;DHT22;13497;48.322;16.204;2023-03-14T01:43:49;9.90;98.20
25640;DHT22;13497;48.322;16.204;2023-03-14T01:46:19;9.90;98.30
25640;DHT22;13497;48.322;16.204;2023-03-14T01:54:05;9.60;98.70
25640;DHT22;13497;48.322;16.204;2023-03-14T01:56:31;9.60;98.80
25640;DHT22;13497;48.322;16.204;2023-03-14T01:58:58;9.60;98.70
25640;DHT22;13497;48.322;16.204;2023-03-14T02:01:25;9.60;98.70
25640;DHT22;13497;48.322;16.204;2023-03-14T02:03:54;9.50;98.90
25640;DHT22;13497;48.322;16.204;2023-03-14T02:06:24;9.40;99.00
25640;DHT22;13497;48.322;16.204;2023-03-14T02:08:51;9.30;99.30
25640;DHT22;13497;48.322;16.204;2023-03-14T02:11:17;9.30;99.40
25640;DHT22;13497;48.322;16.204;2023-03-14T02:13:43;9.20;99.50
25640;DHT22;13497;48.322;16.204;2023-03-14T02:16:09;9.10;99.60
25640;DHT22;13497;48.322;16.204;2023-03-14T02:18:35;8.90;99.90
25640;DHT22;13497;48.322;16.204;2023-03-14T02:26:05;8.70;99.40
25640;DHT22;13497;48.322;16.204;2023-03-14T02:28:34;8.50;99.60
25640;DHT22;13497;48.322;16.204;2023-03-14T02:31:00;8.20;99.90
25640;DHT22;13497;48.322;16.204;2023-03-14T02:33:26;8.00;99.90
25640;DHT22;13497;48.322;16.204;2023-03-14T02:36:02;7.90;99.90
25640;DHT22;13497;48.322;16.204;2023-03-14T02:41:16;7.80;99.90
25640;DHT22;13497;48.322;16.204;2023-03-14T02:43:42;7.70;99.90
25640;DHT22;13497;48.322;16.204;2023-03-14T02:46:12;7.60;99.90
25640;DHT22;13497;48.322;16.204;2023-03-14T02:48:51;7.60;99.90
25640;DHT22;13497;48.322;16.204;2023-03-14T02:51:20;7.40;99.90
25640;DHT22;13497;48.322;16.204;2023-03-14T02:53:46;7.30;99.90
25640;DHT22;13497;48.322;16.204;2023-03-14T02:56:12;7.20;99.90
25640;DHT22;13497;48.322;16.204;2023-03-14T02:58:38;7.20;99.90
25640;DHT22;13497;48.322;16.204;2023-03-14T03:01:04;7.10;99.90
25640;DHT22;13497;48.322;16.204;2023-03-14T03:03:30;7.20;99.90
25640;DHT22;13497;48.322;16.204;2023-03-14T03:05:56;7.20;99.90
25640;DHT22;13497;48.322;16.204;2023-03-14T03:08:24;7.20;99.90
25640;DHT22;13497;48.322;16.204;2023-03-14T03:10:51;7.20;99.90
25640;DHT22;13497;48.322;16.204;2023-03-14T03:13:17;7.10;99.90
25640;DHT22;13497;48.322;16.204;2023-03-14T03:15:43;7.00;99.90
25640;DHT22;13497;48.322;16.204;2023-03-14T03:18:09;7.10;99.90
25640;DHT22;13497;48.322;16.204;2023-03-14T03:20:35;7.10;99.90
25640;DHT22;13497;48.322;16.204;2023-03-14T03:23:01;7.10;99.90
25640;DHT22;13497;48.322;16.204;2023-03-14T03:25:27;7.20;99.90
25640;DHT22;13497;48.322;16.204;2023-03-14T03:27:53;7.20;99.90
25640;DHT22;13497;48.322;16.204;2023-03-14T03:30:19;7.30;99.90
25640;DHT22;13497;48.322;16.204;2023-03-14T03:32:45;7.30;99.90
25640;DHT22;13497;48.322;16.204;2023-03-14T03:35:10;7.40;99.90
25640;DHT22;13497;48.322;16.204;2023-03-14T03:37:36;7.40;99.90
25640;DHT22;13497;48.322;16.204;2023-03-14T03:40:02;7.50;99.90
25640;DHT22;13497;48.322;16.204;2023-03-14T03:42:32;7.60;99.90
25640;DHT22;13497;48.322;16.204;2023-03-14T03:44:58;7.60;99.90
25640;DHT22;13497;48.322;16.204;2023-03-14T03:47:24;7.60;99.90
25640;DHT22;13497;48.322;16.204;2023-03-14T03:49:49;7.60;99.90
25640;DHT22;13497;48.322;16.204;2023-03-14T03:52:15;7.70;99.90
25640;DHT22;13497;48.322;16.204;2023-03-14T03:54:41;7.60;99.90
25640;DHT22;13497;48.322;16.204;2023-03-14T03:57:06;7.60;99.90
25640;DHT22;13497;48.322;16.204;2023-03-14T03:59:32;7.60;99.90
25640;DHT22;13497;48.322;16.204;2023-03-14T04:01:58;7.60;99.90
25640;DHT22;13497;48.322;16.204;2023-03-14T04:04:23;7.40;99.90
25640;DHT22;13497;48.322;16.204;2023-03-14T04:06:49;7.40;99.90
25640;DHT22;13497;48.322;16.204;2023-03-14T04:09:15;7.20;99.90
25640;DHT22;13497;48.322;16.204;2023-03-14T04:11:40;7.10;99.90
25640;DHT22;13497;48.322;16.204;2023-03-14T04:14:07;7.10;99.90
25640;DHT22;13497;48.322;16.204;2023-03-14T04:16:32;7.10;99.90
25640;DHT22;13497;48.322;16.204;2023-03-14T04:18:58;7.10;99.90
25640;DHT22;13497;48.322;16.204;2023-03-14T04:21:24;7.10;99.90
25640;DHT22;13497;48.322;16.204;2023-03-14T04:23:50;7.20;99.90
25640;DHT22;13497;48.322;16.204;2023-03-14T04:26:16;7.20;99.90
25640;DHT22;13497;48.322;16.204;2023-03-14T04:28:41;7.30;99.90
25640;DHT22;13497;48.322;16.204;2023-03-14T04:31:12;7.40;99.90
25640;DHT22;13497;48.322;16.204;2023-03-14T04:33:38;7.50;99.90
25640;DHT22;13497;48.322;16.204;2023-03-14T04:36:05;7.60;99.90
25640;DHT22;13497;48.322;16.204;2023-03-14T04:38:31;7.70;99.90
25640;DHT22;13497;48.322;16.204;2023-03-14T04:40:57;7.70;99.90
25640;DHT22;13497;48.322;16.204;2023-03-14T04:43:24;7.80;99.90
25640;DHT22;13497;48.322;16.204;2023-03-14T04:45:54;7.70;99.90
25640;DHT22;13497;48.322;16.204;2023-03-14T04:48:21;7.80;99.90
25640;DHT22;13497;48.322;16.204;2023-03-14T04:50:47;7.70;99.90
25640;DHT22;13497;48.322;16.204;2023-03-14T04:53:13;7.70;99.90
25640;DHT22;13497;48.322;16.204;2023-03-14T04:55:39;7.60;99.90
25640;DHT22;13497;48.322;16.204;2023-03-14T04:58:05;7.60;99.90
25640;DHT22;13497;48.322;16.204;2023-03-14T05:00:31;7.60;99.90
25640;DHT22;13497;48.322;16.204;2023-03-14T05:02:56;7.60;99.90
25640;DHT22;13497;48.322;16.204;2023-03-14T05:05:22;7.70;99.90
25640;DHT22;13497;48.322;16.204;2023-03-14T05:07:48;7.60;99.90
25640;DHT22;13497;48.322;16.204;2023-03-14T05:10:14;7.60;99.90
25640;DHT22;13497;48.322;16.204;2023-03-14T05:12:39;7.60;99.90
25640;DHT22;13497;48.322;16.204;2023-03-14T05:15:05;7.70;99.90
25640;DHT22;13497;48.322;16.204;2023-03-14T05:17:35;7.60;99.90
25640;DHT22;13497;48.322;16.204;2023-03-14T05:20:01;7.70;99.90
25640;DHT22;13497;48.322;16.204;2023-03-14T05:22:26;7.70;99.90
25640;DHT22;13497;48.322;16.204;2023-03-14T05:24:52;7.70;99.90
25640;DHT22;13497;48.322;16.204;2023-03-14T05:27:22;7.70;99.90
25640;DHT22;13497;48.322;16.204;2023-03-14T05:29:47;7.70;99.90
25640;DHT22;13497;48.322;16.204;2023-03-14T05:32:13;7.70;99.90
25640;DHT22;13497;48.322;16.204;2023-03-14T05:34:39;7.70;99.90
25640;DHT22;13497;48.322;16.204;2023-03-14T05:37:04;7.80;99.90
25640;DHT22;13497;48.322;16.204;2023-03-14T05:39:30;7.90;99.90
25640;DHT22;13497;48.322;16.204;2023-03-14T05:41:55;7.90;99.90
25640;DHT22;13497;48.322;16.204;2023-03-14T05:44:21;8.00;99.90
25640;DHT22;13497;48.322;16.204;2023-03-14T05:46:47;8.10;99.90
25640;DHT22;13497;48.322;16.204;2023-03-14T05:49:12;8.10;99.90
25640;DHT22;13497;48.322;16.204;2023-03-14T05:51:38;8.20;99.90
25640;DHT22;13497;48.322;16.204;2023-03-14T05:54:04;8.30;99.90
25640;DHT22;13497;48.322;16.204;2023-03-14T05:56:29;8.50;99.90
25640;DHT22;13497;48.322;16.204;2023-03-14T05:58:55;8.60;99.90
25640;DHT22;13497;48.322;16.204;2023-03-14T06:01:21;8.80;99.90
25640;DHT22;13497;48.322;16.204;2023-03-14T06:03:46;9.00;99.90
25640;DHT22;13497;48.322;16.204;2023-03-14T06:06:12;9.10;99.90
25640;DHT22;13497;48.322;16.204;2023-03-14T06:08:37;9.40;99.90
25640;DHT22;13497;48.322;16.204;2023-03-14T06:11:04;9.60;99.90
25640;DHT22;13497;48.322;16.204;2023-03-14T06:13:29;9.80;99.90
25640;DHT22;13497;48.322;16.204;2023-03-14T06:15:55;10.00;99.90
25640;DHT22;13497;48.322;16.204;2023-03-14T06:18:20;10.20;99.90
25640;DHT22;13497;48.322;16.204;2023-03-14T06:20:46;10.40;99.90
25640;DHT22;13497;48.322;16.204;2023-03-14T06:23:12;10.50;99.90
25640;DHT22;13497;48.322;16.204;2023-03-14T06:25:38;10.60;99.90
25640;DHT22;13497;48.322;16.204;2023-03-14T06:28:03;10.70;99.90
25640;DHT22;13497;48.322;16.204;2023-03-14T06:30:29;10.80;99.90
25640;DHT22;13497;48.322;16.204;2023-03-14T06:32:55;10.90;99.90
25640;DHT22;13497;48.322;16.204;2023-03-14T06:35:21;11.00;99.90
25640;DHT22;13497;48.322;16.204;2023-03-14T06:37:47;11.00;99.90
25640;DHT22;13497;48.322;16.204;2023-03-14T06:40:13;11.20;99.90
25640;DHT22;13497;48.322;16.204;2023-03-14T06:42:46;11.30;99.90
25640;DHT22;13497;48.322;16.204;2023-03-14T06:45:13;11.50;99.90
25640;DHT22;13497;48.322;16.204;2023-03-14T06:47:39;11.60;99.90
25640;DHT22;13497;48.322;16.204;2023-03-14T06:50:05;11.70;99.90
25640;DHT22;13497;48.322;16.204;2023-03-14T06:52:31;11.70;99.90
25640;DHT22;13497;48.322;16.204;2023-03-14T06:54:57;11.70;99.90
25640;DHT22;13497;48.322;16.204;2023-03-14T06:57:22;11.70;99.90
25640;DHT22;13497;48.322;16.204;2023-03-14T06:59:48;11.90;99.90
25640;DHT22;13497;48.322;16.204;2023-03-14T07:02:14;12.00;99.90
25640;DHT22;13497;48.322;16.204;2023-03-14T07:04:40;12.10;99.90
25640;DHT22;13497;48.322;16.204;2023-03-14T07:07:06;12.30;99.90
25640;DHT22;13497;48.322;16.204;2023-03-14T07:09:32;12.40;99.90
25640;DHT22;13497;48.322;16.204;2023-03-14T07:11:58;12.50;99.90
25640;DHT22;13497;48.322;16.204;2023-03-14T07:14:24;12.60;99.90
25640;DHT22;13497;48.322;16.204;2023-03-14T07:16:50;12.50;99.90
25640;DHT22;13497;48.322;16.204;2023-03-14T07:19:16;12.50;99.90
25640;DHT22;13497;48.322;16.204;2023-03-14T07:21:41;12.40;99.90
25640;DHT22;13497;48.322;16.204;2023-03-14T07:24:07;12.40;99.90
25640;DHT22;13497;48.322;16.204;2023-03-14T07:26:33;12.30;99.90
25640;DHT22;13497;48.322;16.204;2023-03-14T07:28:59;12.20;99.90
25640;DHT22;13497;48.322;16.204;2023-03-14T07:31:24;12.20;99.90
25640;DHT22;13497;48.322;16.204;2023-03-14T07:33:50;12.20;99.90
25640;DHT22;13497;48.322;16.204;2023-03-14T07:36:17;12.30;99.90
25640;DHT22;13497;48.322;16.204;2023-03-14T07:38:43;12.30;99.90
25640;DHT22;13497;48.322;16.204;2023-03-14T07:41:08;12.40;99.90
25640;DHT22;13497;48.322;16.204;2023-03-14T07:43:34;12.40;99.90
25640;DHT22;13497;48.322;16.204;2023-03-14T07:46:00;12.50;99.90
25640;DHT22;13497;48.322;16.204;2023-03-14T07:48:26;12.50;99.90
25640;DHT22;13497;48.322;16.204;2023-03-14T07:50:52;12.50;99.90
25640;DHT22;13497;48.322;16.204;2023-03-14T07:53:19;12.50;99.90
25640;DHT22;13497;48.322;16.204;2023-03-14T07:55:45;12.40;99.90
25640;DHT22;13497;48.322;16.204;2023-03-14T07:58:12;12.40;99.90
25640;DHT22;13497;48.322;16.204;2023-03-14T08:00:37;12.40;99.90
25640;DHT22;13497;48.322;16.204;2023-03-14T08:03:03;12.20;99.90
25640;DHT22;13497;48.322;16.204;2023-03-14T08:05:29;12.20;99.90
25640;DHT22;13497;48.322;16.204;2023-03-14T08:07:55;12.20;99.90
25640;DHT22;13497;48.322;16.204;2023-03-14T08:10:20;12.20;99.90
25640;DHT22;13497;48.322;16.204;2023-03-14T08:12:46;12.20;99.90
25640;DHT22;13497;48.322;16.204;2023-03-14T08:15:12;12.20;99.90
25640;DHT22;13497;48.322;16.204;2023-03-14T08:17:37;12.30;99.90
25640;DHT22;13497;48.322;16.204;2023-03-14T08:20:04;12.40;99.90
25640;DHT22;13497;48.322;16.204;2023-03-14T08:22:33;12.40;99.90
25640;DHT22;13497;48.322;16.204;2023-03-14T08:24:59;12.40;99.90
25640;DHT22;13497;48.322;16.204;2023-03-14T08:27:25;12.50;99.90
25640;DHT22;13497;48.322;16.204;2023-03-14T08:29:50;12.60;99.90
25640;DHT22;13497;48.322;16.204;2023-03-14T08:32:16;12.60;99.90
25640;DHT22;13497;48.322;16.204;2023-03-14T08:34:42;12.70;99.90
25640;DHT22;13497;48.322;16.204;2023-03-14T08:37:07;12.80;99.90
25640;DHT22;13497;48.322;16.204;2023-03-14T08:39:33;12.80;99.90
25640;DHT22;13497;48.322;16.204;2023-03-14T08:41:59;12.90;99.90
25640;DHT22;13497;48.322;16.204;2023-03-14T08:44:24;13.00;99.90
25640;DHT22;13497;48.322;16.204;2023-03-14T08:46:50;13.00;99.90
25640;DHT22;13497;48.322;16.204;2023-03-14T08:49:16;13.10;99.90
25640;DHT22;13497;48.322;16.204;2023-03-14T08:51:41;13.20;99.90
25640;DHT22;13497;48.322;16.204;2023-03-14T08:54:10;13.20;99.90
25640;DHT22;13497;48.322;16.204;2023-03-14T08:56:36;13.20;99.90
25640;DHT22;13497;48.322;16.204;2023-03-14T08:59:03;13.20;99.90
25640;DHT22;13497;48.322;16.204;2023-03-14T09:01:29;13.30;99.90
25640;DHT22;13497;48.322;16.204;2023-03-14T09:03:54;13.30;99.80
25640;DHT22;13497;48.322;16.204;2023-03-14T09:06:20;13.40;99.70
25640;DHT22;13497;48.322;16.204;2023-03-14T09:08:46;13.50;99.70
25640;DHT22;13497;48.322;16.204;2023-03-14T09:11:12;13.50;99.60
25640;DHT22;13497;48.322;16.204;2023-03-14T09:13:38;13.60;99.50
25640;DHT22;13497;48.322;16.204;2023-03-14T09:16:04;13.40;99.50
25640;DHT22;13497;48.322;16.204;2023-03-14T09:18:30;13.40;99.30
25640;DHT22;13497;48.322;16.204;2023-03-14T09:20:56;13.40;99.40
25640;DHT22;13497;48.322;16.204;2023-03-14T09:23:21;13.30;99.40
25640;DHT22;13497;48.322;16.204;2023-03-14T09:25:47;13.30;99.20
25640;DHT22;13497;48.322;16.204;2023-03-14T09:28:13;13.30;99.30
25640;DHT22;13497;48.322;16.204;2023-03-14T09:30:39;13.40;99.10
25640;DHT22;13497;48.322;16.204;2023-03-14T09:33:04;13.40;99.20
25640;DHT22;13497;48.322;16.204;2023-03-14T09:35:30;13.50;99.10
25640;DHT22;13497;48.322;16.204;2023-03-14T09:37:56;13.50;98.90
25640;DHT22;13497;48.322;16.204;2023-03-14T09:40:22;13.60;98.70
25640;DHT22;13497;48.322;16.204;2023-03-14T09:42:53;13.60;98.60
25640;DHT22;13497;48.322;16.204;2023-03-14T09:45:28;13.60;98.60
25640;DHT22;13497;48.322;16.204;2023-03-14T09:47:55;13.70;98.50
25640;DHT22;13497;48.322;16.204;2023-03-14T09:50:22;13.70;98.40
25640;DHT22;13497;48.322;16.204;2023-03-14T09:52:51;13.70;98.40
25640;DHT22;13497;48.322;16.204;2023-03-14T09:55:20;13.70;98.50
25640;DHT22;13497;48.322;16.204;2023-03-14T09:57:48;13.60;98.60
25640;DHT22;13497;48.322;16.204;2023-03-14T10:00:22;13.60;98.90
25640;DHT22;13497;48.322;16.204;2023-03-14T10:02:56;13.60;99.00
25640;DHT22;13497;48.322;16.204;2023-03-14T10:05:24;13.50;99.40
25640;DHT22;13497;48.322;16.204;2023-03-14T10:07:51;13.40;99.60
25640;DHT22;13497;48.322;16.204;2023-03-14T10:10:21;13.30;99.90
25640;DHT22;13497;48.322;16.204;2023-03-14T10:12:58;13.20;99.90
25640;DHT22;13497;48.322;16.204;2023-03-14T10:15:30;13.00;99.90
25640;DHT22;13497;48.322;16.204;2023-03-14T10:17:59;13.00;99.90
25640;DHT22;13497;48.322;16.204;2023-03-14T10:20:33;12.80;99.90
25640;DHT22;13497;48.322;16.204;2023-03-14T10:25:41;12.70;99.90
25640;DHT22;13497;48.322;16.204;2023-03-14T10:28:37;12.60;99.90
25640;DHT22;13497;48.322;16.204;2023-03-14T10:31:03;12.60;99.90
25640;DHT22;13497;48.322;16.204;2023-03-14T10:33:34;12.50;99.90
25640;DHT22;13497;48.322;16.204;2023-03-14T10:36:06;12.50;99.90
25640;DHT22;13497;48.322;16.204;2023-03-14T10:38:40;12.50;99.90
25640;DHT22;13497;48.322;16.204;2023-03-14T10:41:26;12.40;99.90
25640;DHT22;13497;48.322;16.204;2023-03-14T10:43:57;12.40;99.90
25640;DHT22;13497;48.322;16.204;2023-03-14T10:46:26;12.40;99.90
25640;DHT22;13497;48.322;16.204;2023-03-14T10:48:55;12.40;99.90
25640;DHT22;13497;48.322;16.204;2023-03-14T10:51:27;12.40;99.90
25640;DHT22;13497;48.322;16.204;2023-03-14T10:56:24;12.10;99.90
25640;DHT22;13497;48.322;16.204;2023-03-14T10:58:53;12.00;99.90
25640;DHT22;13497;48.322;16.204;2023-03-14T11:06:50;11.80;99.90
25640;DHT22;13497;48.322;16.204;2023-03-14T11:10:13;11.80;99.90
25640;DHT22;13497;48.322;16.204;2023-03-14T11:15:02;11.80;99.90
25640;DHT22;13497;48.322;16.204;2023-03-14T11:20:26;11.80;99.90
25640;DHT22;13497;48.322;16.204;2023-03-14T11:23:07;11.80;99.90
25640;DHT22;13497;48.322;16.204;2023-03-14T11:26:09;11.80;99.90
25640;DHT22;13497;48.322;16.204;2023-03-14T11:28:49;11.70;99.90
25640;DHT22;13497;48.322;16.204;2023-03-14T11:31:29;11.60;99.90
25640;DHT22;13497;48.322;16.204;2023-03-14T11:36:54;11.50;99.90
25640;DHT22;13497;48.322;16.204;2023-03-14T11:39:24;11.50;99.90
25640;DHT22;13497;48.322;16.204;2023-03-14T11:41:57;11.40;99.90
25640;DHT22;13497;48.322;16.204;2023-03-14T11:44:25;11.40;99.90
25640;DHT22;13497;48.322;16.204;2023-03-14T11:47:00;11.30;99.90
25640;DHT22;13497;48.322;16.204;2023-03-14T11:49:42;11.30;99.90
25640;DHT22;13497;48.322;16.204;2023-03-14T11:52:41;11.30;99.90
25640;DHT22;13497;48.322;16.204;2023-03-14T11:57:55;11.20;99.90
25640;DHT22;13497;48.322;16.204;2023-03-14T12:00:24;11.20;99.90
25640;DHT22;13497;48.322;16.204;2023-03-14T12:08:38;11.10;99.90
25640;DHT22;13497;48.322;16.204;2023-03-14T12:11:12;11.10;99.90
25640;DHT22;13497;48.322;16.204;2023-03-14T12:13:39;11.10;99.90
25640;DHT22;13497;48.322;16.204;2023-03-14T12:16:25;11.10;99.90
25640;DHT22;13497;48.322;16.204;2023-03-14T12:18:53;11.10;99.90
25640;DHT22;13497;48.322;16.204;2023-03-14T12:21:19;11.10;99.90
25640;DHT22;13497;48.322;16.204;2023-03-14T12:23:54;11.00;99.90
25640;DHT22;13497;48.322;16.204;2023-03-14T12:26:23;11.10;99.90
25640;DHT22;13497;48.322;16.204;2023-03-14T12:42:10;11.00;99.90
25640;DHT22;13497;48.322;16.204;2023-03-14T12:44:52;11.00;99.90
25640;DHT22;13497;48.322;16.204;2023-03-14T12:49:47;10.90;99.90
25640;DHT22;13497;48.322;16.204;2023-03-14T12:52:19;10.90;99.90
25640;DHT22;13497;48.322;16.204;2023-03-14T12:55:10;10.80;99.90
25640;DHT22;13497;48.322;16.204;2023-03-14T12:58:28;10.80;99.90
25640;DHT22;13497;48.322;16.204;2023-03-14T13:00:58;10.80;99.90
25640;DHT22;13497;48.322;16.204;2023-03-14T13:03:27;10.80;99.90
25640;DHT22;13497;48.322;16.204;2023-03-14T13:06:02;10.80;99.90
25640;DHT22;13497;48.322;16.204;2023-03-14T13:08:44;10.80;99.90
25640;DHT22;13497;48.322;16.204;2023-03-14T13:11:15;10.80;99.90
25640;DHT22;13497;48.322;16.204;2023-03-14T13:13:45;10.70;99.90
25640;DHT22;13497;48.322;16.204;2023-03-14T13:16:16;10.80;99.90
25640;DHT22;13497;48.322;16.204;2023-03-14T13:18:44;10.80;99.90
25640;DHT22;13497;48.322;16.204;2023-03-14T13:21:24;10.80;99.90
25640;DHT22;13497;48.322;16.204;2023-03-14T13:24:00;10.80;99.90
25640;DHT22;13497;48.322;16.204;2023-03-14T13:26:42;10.80;99.90
25640;DHT22;13497;48.322;16.204;2023-03-14T13:29:19;10.80;99.90
25640;DHT22;13497;48.322;16.204;2023-03-14T13:31:46;10.80;99.90
25640;DHT22;13497;48.322;16.204;2023-03-14T13:34:13;10.80;99.90
25640;DHT22;13497;48.322;16.204;2023-03-14T13:36:38;10.80;99.90
25640;DHT22;13497;48.322;16.204;2023-03-14T13:39:13;10.80;99.90
25640;DHT22;13497;48.322;16.204;2023-03-14T13:41:40;11.00;99.90
25640;DHT22;13497;48.322;16.204;2023-03-14T13:44:08;11.00;99.90
25640;DHT22;13497;48.322;16.204;2023-03-14T13:46:35;11.00;99.90
25640;DHT22;13497;48.322;16.204;2023-03-14T13:49:06;11.00;99.90
25640;DHT22;13497;48.322;16.204;2023-03-14T13:51:33;11.00;99.90
25640;DHT22;13497;48.322;16.204;2023-03-14T13:53:59;11.10;99.90
25640;DHT22;13497;48.322;16.204;2023-03-14T13:56:28;11.10;99.90
25640;DHT22;13497;48.322;16.204;2023-03-14T13:58:55;11.10;99.90
25640;DHT22;13497;48.322;16.204;2023-03-14T14:03:51;11.20;99.90
25640;DHT22;13497;48.322;16.204;2023-03-14T14:06:32;11.20;99.90
25640;DHT22;13497;48.322;16.204;2023-03-14T14:09:20;11.20;99.90
25640;DHT22;13497;48.322;16.204;2023-03-14T14:14:35;11.30;99.90
25640;DHT22;13497;48.322;16.204;2023-03-14T14:17:04;11.30;99.90
25640;DHT22;13497;48.322;16.204;2023-03-14T14:19:32;11.30;99.90
25640;DHT22;13497;48.322;16.204;2023-03-14T14:21:59;11.40;99.90
25640;DHT22;13497;48.322;16.204;2023-03-14T14:24:30;11.40;99.90
25640;DHT22;13497;48.322;16.204;2023-03-14T14:29:39;11.50;99.90
25640;DHT22;13497;48.322;16.204;2023-03-14T14:35:06;11.60;99.90
25640;DHT22;13497;48.322;16.204;2023-03-14T14:37:41;11.50;99.90
25640;DHT22;13497;48.322;16.204;2023-03-14T14:40:09;11.60;99.90
25640;DHT22;13497;48.322;16.204;2023-03-14T14:42:39;11.60;99.90
25640;DHT22;13497;48.322;16.204;2023-03-14T14:45:09;11.70;99.90
25640;DHT22;13497;48.322;16.204;2023-03-14T14:47:49;11.60;99.90
25640;DHT22;13497;48.322;16.204;2023-03-14T14:50:33;11.70;99.90
25640;DHT22;13497;48.322;16.204;2023-03-14T14:53:01;11.80;99.90
25640;DHT22;13497;48.322;16.204;2023-03-14T14:55:40;11.90;99.90
25640;DHT22;13497;48.322;16.204;2023-03-14T14:58:23;11.90;99.90
25640;DHT22;13497;48.322;16.204;2023-03-14T15:03:30;11.80;99.90
25640;DHT22;13497;48.322;16.204;2023-03-14T15:05:57;11.70;99.90
25640;DHT22;13497;48.322;16.204;2023-03-14T15:08:25;11.70;99.90
25640;DHT22;13497;48.322;16.204;2023-03-14T15:10:51;11.80;99.90
25640;DHT22;13497;48.322;16.204;2023-03-14T15:13:17;11.90;99.90
25640;DHT22;13497;48.322;16.204;2023-03-14T15:15:43;12.10;99.90
25640;DHT22;13497;48.322;16.204;2023-03-14T15:18:17;12.20;99.90
25640;DHT22;13497;48.322;16.204;2023-03-14T15:20:44;12.20;99.90
25640;DHT22;13497;48.322;16.204;2023-03-14T15:23:15;12.30;99.90
25640;DHT22;13497;48.322;16.204;2023-03-14T15:25:41;12.30;99.90
25640;DHT22;13497;48.322;16.204;2023-03-14T15:28:16;12.30;99.90
25640;DHT22;13497;48.322;16.204;2023-03-14T15:30:42;12.30;99.90
25640;DHT22;13497;48.322;16.204;2023-03-14T15:33:08;12.20;99.90
25640;DHT22;13497;48.322;16.204;2023-03-14T15:35:35;12.20;99.90
25640;DHT22;13497;48.322;16.204;2023-03-14T15:38:01;12.10;99.90
25640;DHT22;13497;48.322;16.204;2023-03-14T15:40:27;12.10;99.90
25640;DHT22;13497;48.322;16.204;2023-03-14T15:42:53;12.10;99.90
25640;DHT22;13497;48.322;16.204;2023-03-14T15:45:18;12.10;99.90
25640;DHT22;13497;48.322;16.204;2023-03-14T15:47:44;12.10;99.90
25640;DHT22;13497;48.322;16.204;2023-03-14T15:50:10;12.00;99.90
25640;DHT22;13497;48.322;16.204;2023-03-14T15:52:36;12.00;99.90
25640;DHT22;13497;48.322;16.204;2023-03-14T15:55:02;12.00;99.90
25640;DHT22;13497;48.322;16.204;2023-03-14T15:57:28;12.00;99.90
25640;DHT22;13497;48.322;16.204;2023-03-14T15:59:54;11.90;99.90
25640;DHT22;13497;48.322;16.204;2023-03-14T16:02:19;11.90;99.90
25640;DHT22;13497;48.322;16.204;2023-03-14T16:04:45;12.00;99.90
25640;DHT22;13497;48.322;16.204;2023-03-14T16:07:11;11.90;99.90
25640;DHT22;13497;48.322;16.204;2023-03-14T16:09:37;12.00;99.90
25640;DHT22;13497;48.322;16.204;2023-03-14T16:12:02;11.90;99.90
25640;DHT22;13497;48.322;16.204;2023-03-14T16:14:30;11.90;99.90
25640;DHT22;13497;48.322;16.204;2023-03-14T16:16:56;11.90;99.90
25640;DHT22;13497;48.322;16.204;2023-03-14T16:19:25;11.80;99.90
25640;DHT22;13497;48.322;16.204;2023-03-14T16:21:52;11.70;99.90
25640;DHT22;13497;48.322;16.204;2023-03-14T16:24:18;11.70;99.90
25640;DHT22;13497;48.322;16.204;2023-03-14T16:26:44;11.70;99.90
25640;DHT22;13497;48.322;16.204;2023-03-14T16:29:10;11.70;99.90
25640;DHT22;13497;48.322;16.204;2023-03-14T16:31:36;11.70;99.90
25640;DHT22;13497;48.322;16.204;2023-03-14T16:34:10;11.70;99.90
25640;DHT22;13497;48.322;16.204;2023-03-14T16:36:36;11.60;99.90
25640;DHT22;13497;48.322;16.204;2023-03-14T16:39:02;11.60;99.90